Thunder radar more information blitzortung!


Radar de pluja more information rain snow radar


Visita la nostra xarxa de llocs de meteo:

Template documentation
and downloads

And another site



No particular awareness of the weather is required.    There are no Weather-warnings

Pagina Historial Weather Underground text

Diari Resum January 21, 2018 Unitats:  Imperial    Mètric   Tant
« Previous Dia
SegĂźent Dia »
Diari Setmana Mensual Anual Personalitzada
  Maxima: Minima: Media:
Temperatura: TemperatureC °F 11.9 °F 14.4 °F
Punt de rosada: DewpointC °F 4.8 °F 7 °F
Humitat: Humidity % 50 % 61 %
Wind Speed: WindSpeedKMH mph 0.0 mph 7 mph
RĂ fegues de vent: WindSpeedGustKMH mph - -
Vent:- - SSW
Pression baro: PressurehPa in 1015.8 in -
Precipitacions: 0.0 in    
Historical Graphs
 
 
Dades de taula per January 21, 2018
Temps Temperatura Punt de rosada Pression baro Vent Wind Speed RĂ fegues de vent Humitat Rainfall Rate (Hourly)
TemperatureC °F DewpointC °F PressurehPa in Calm     Humidity % HourlyPrecipMM in
00:03 12.1 °F 4.8 °F 1016.8 in West 5.6 mph 5.6 mph 61 % 0.0 in
00:08 12.2 °F 4.9 °F 1016.8 in WSW 5.6 mph 5.6 mph 61 % 0.0 in
00:13 12.2 °F 4.9 °F 1016.8 in WSW 6.1 mph 6.1 mph 61 % 0.0 in
00:18 12.2 °F 4.9 °F 1016.8 in WSW 5.6 mph 5.6 mph 61 % 0.0 in
00:23 12.1 °F 5.1 °F 1016.8 in Calm     62 % 0.0 in
00:28 12.1 °F 5.1 °F 1016.8 in East 1.9 mph   62 % 0.0 in
00:33 12.2 °F 5.1 °F 1016.8 in ESE 1.9 mph 1.9 mph 62 % 0.0 in
00:38 12.1 °F 5.3 °F 1016.8 in ESE 7.4 mph 7.4 mph 63 % 0.0 in
00:43 12.1 °F 5.3 °F 1016.8 in South 1.9 mph 2.3 mph 63 % 0.0 in
00:48 12.0 °F 4.9 °F 1017.8 in WSW 3.7 mph 3.7 mph 62 % 0.0 in
00:53 12.0 °F 4.9 °F 1017.8 in NE 3.7 mph 3.7 mph 62 % 0.0 in
00:58 12.1 °F 5.3 °F 1017.8 in NW 3.7 mph 3.9 mph 63 % 0.0 in
01:03 12.1 °F 5.1 °F 1016.8 in WNW 3.7 mph 3.7 mph 62 % 0.0 in
01:08 12.1 °F 5.1 °F 1016.8 in WSW 6.1 mph 6.1 mph 62 % 0.0 in
01:13 12.2 °F 5.3 °F 1016.8 in ENE 3.7 mph 3.7 mph 63 % 0.0 in
01:18 12.2 °F 5.1 °F 1016.8 in SSW 7.4 mph 7.4 mph 62 % 0.0 in
01:23 12.2 °F 5.3 °F 1016.8 in West 3.7 mph 3.7 mph 63 % 0.0 in
01:28 12.2 °F 5.3 °F 1016.8 in SW 3.9 mph 3.9 mph 63 % 0.0 in
01:33 12.1 °F 5.3 °F 1016.8 in NW 3.7 mph 3.7 mph 63 % 0.0 in
01:38 12.1 °F 5.3 °F 1016.8 in West 5.6 mph 5.6 mph 63 % 0.0 in
01:43 12.3 °F 5.4 °F 1016.8 in West 5.6 mph 5.6 mph 63 % 0.0 in
01:48 12.2 °F 5.3 °F 1016.8 in WSW 5.6 mph 5.6 mph 63 % 0.0 in
01:53 12.2 °F 5.3 °F 1016.8 in SW 9.5 mph 9.5 mph 63 % 0.0 in
01:58 12.2 °F 5.3 °F 1016.8 in WSW 3.7 mph 3.7 mph 63 % 0.0 in
02:03 12.1 °F 5.3 °F 1016.8 in WNW 5.6 mph 5.6 mph 63 % 0.0 in
02:08 12.2 °F 5.3 °F 1016.8 in WNW 5.0 mph 5.0 mph 63 % 0.0 in
02:13 12.2 °F 5.3 °F 1016.8 in WSW 7.4 mph 7.4 mph 63 % 0.0 in
02:18 12.2 °F 5.3 °F 1015.8 in East 7.4 mph 7.4 mph 63 % 0.0 in
02:23 12.0 °F 5.2 °F 1015.8 in WNW 5.6 mph 5.6 mph 63 % 0.0 in
02:28 12.0 °F 5.2 °F 1015.8 in WNW 5.6 mph 5.6 mph 63 % 0.0 in
02:33 12.2 °F 5.6 °F 1015.8 in WNW 9.3 mph 9.3 mph 64 % 0.0 in
02:38 12.3 °F 5.7 °F 1015.8 in WSW 13.0 mph 13.0 mph 64 % 0.0 in
02:43 12.4 °F 5.8 °F 1015.8 in SW 11.1 mph 11.1 mph 64 % 0.0 in
02:48 12.5 °F 5.9 °F 1015.8 in SSW 16.7 mph 16.7 mph 64 % 0.0 in
02:53 12.5 °F 5.9 °F 1015.8 in WNW 7.4 mph 7.4 mph 64 % 0.0 in
02:58 12.4 °F 5.8 °F 1015.8 in West 9.0 mph 9.0 mph 64 % 0.0 in
03:03 12.4 °F 5.8 °F 1016.8 in WNW 7.4 mph 7.4 mph 64 % 0.0 in
03:08 12.5 °F 5.9 °F 1016.8 in SSW 9.5 mph 9.5 mph 64 % 0.0 in
03:13 12.6 °F 5.9 °F 1016.8 in SW 7.4 mph 7.4 mph 64 % 0.0 in
03:18 12.7 °F 6.1 °F 1016.8 in SW 7.4 mph 7.4 mph 64 % 0.0 in
03:23 12.7 °F 6.1 °F 1016.8 in NNW 9.3 mph 9.3 mph 64 % 0.0 in
03:28 12.7 °F 6.1 °F 1016.8 in East 3.9 mph 3.9 mph 64 % 0.0 in
03:33 12.8 °F 6.2 °F 1016.8 in ESE 7.4 mph 7.4 mph 64 % 0.0 in
03:38 12.7 °F 6.1 °F 1016.8 in NE 7.4 mph 7.4 mph 64 % 0.0 in
03:43 12.8 °F 6.2 °F 1016.8 in ESE 5.6 mph 5.6 mph 64 % 0.0 in
03:48 12.6 °F 5.9 °F 1016.8 in ESE 3.7 mph   64 % 0.0 in
03:53 12.5 °F 5.9 °F 1016.8 in WNW 3.7 mph 3.7 mph 64 % 0.0 in
03:58 12.5 °F 5.9 °F 1016.8 in WSW 3.7 mph 3.7 mph 64 % 0.0 in
04:03 12.5 °F 5.9 °F 1016.8 in WNW 9.3 mph 9.3 mph 64 % 0.0 in
04:08 12.5 °F 5.9 °F 1016.8 in WNW 3.7 mph 3.7 mph 64 % 0.0 in
04:13 12.5 °F 5.9 °F 1016.8 in SSW 6.4 mph 6.4 mph 64 % 0.0 in
04:18 12.5 °F 5.9 °F 1016.8 in SSW 4.7 mph 4.7 mph 64 % 0.0 in
04:23 12.5 °F 5.9 °F 1016.8 in ENE 5.6 mph 5.6 mph 64 % 0.0 in
04:28 12.6 °F 5.9 °F 1016.8 in West 5.6 mph 5.6 mph 64 % 0.0 in
04:33 12.7 °F 6.1 °F 1016.8 in NW 7.4 mph 7.4 mph 64 % 0.0 in
04:38 12.7 °F 6.1 °F 1016.8 in South 5.6 mph 5.6 mph 64 % 0.0 in
04:43 12.8 °F 6.2 °F 1016.8 in West 5.8 mph 5.8 mph 64 % 0.0 in
04:48 12.8 °F 6.2 °F 1016.8 in NW 8.7 mph 8.7 mph 64 % 0.0 in
04:53 12.9 °F 6.2 °F 1016.8 in NNW 9.3 mph 9.3 mph 64 % 0.0 in
04:58 12.9 °F 6.2 °F 1016.8 in WSW 5.6 mph 5.6 mph 64 % 0.0 in
05:03 13.0 °F 6.3 °F 1016.8 in WNW 7.4 mph 7.4 mph 64 % 0.0 in
05:08 13.0 °F 6.3 °F 1016.8 in WNW 11.1 mph 11.1 mph 64 % 0.0 in
05:13 13.0 °F 6.3 °F 1016.8 in WNW 7.4 mph 7.4 mph 64 % 0.0 in
05:18 13.0 °F 6.3 °F 1015.8 in WNW 11.4 mph 11.4 mph 64 % 0.0 in
05:23 13.0 °F 6.3 °F 1015.8 in ENE 13.0 mph 13.0 mph 64 % 0.0 in
05:28 13.0 °F 6.3 °F 1015.8 in WNW 7.4 mph 7.4 mph 64 % 0.0 in
05:33 13.0 °F 6.3 °F 1015.8 in WNW 13.0 mph 13.0 mph 64 % 0.0 in
05:38 13.1 °F 6.4 °F 1015.8 in WSW 13.0 mph 13.0 mph 64 % 0.0 in
05:43 13.1 °F 6.4 °F 1015.8 in NW 9.3 mph 9.3 mph 64 % 0.0 in
05:48 13.1 °F 6.4 °F 1016.8 in West 9.3 mph 9.3 mph 64 % 0.0 in
05:53 13.1 °F 6.4 °F 1016.8 in East 9.3 mph 9.3 mph 64 % 0.0 in
05:58 13.0 °F 6.3 °F 1016.8 in NW 5.6 mph 5.6 mph 64 % 0.0 in
06:03 13.0 °F 6.3 °F 1016.8 in WNW 11.1 mph 11.1 mph 64 % 0.0 in
06:08 13.0 °F 6.3 °F 1016.8 in WNW 10.0 mph 10.0 mph 64 % 0.0 in
06:13 13.0 °F 6.3 °F 1016.8 in WSW 8.7 mph 8.7 mph 64 % 0.0 in
06:18 13.0 °F 6.3 °F 1017.8 in West 7.6 mph 7.6 mph 64 % 0.0 in
06:23 13.0 °F 6.3 °F 1017.8 in WSW 9.3 mph 9.3 mph 64 % 0.0 in
06:28 13.0 °F 6.3 °F 1017.8 in West 18.5 mph 18.5 mph 64 % 0.0 in
06:33 13.1 °F 6.4 °F 1016.8 in NNE 9.3 mph 9.3 mph 64 % 0.0 in
06:38 13.0 °F 6.3 °F 1016.8 in West 9.3 mph 9.3 mph 64 % 0.0 in
06:48 13.0 °F 6.3 °F 1017.8 in WNW 7.4 mph 7.4 mph 64 % 0.0 in
06:54 12.9 °F 6.2 °F 1017.8 in WNW 9.3 mph 9.3 mph 64 % 0.0 in
06:59 12.9 °F 6.2 °F 1017.8 in WNW 13.0 mph 13.0 mph 64 % 0.0 in
07:04 12.9 °F 6.2 °F 1017.8 in SW 9.3 mph 9.3 mph 64 % 0.0 in
07:14 12.9 °F 6.2 °F 1017.8 in NW 7.4 mph 7.4 mph 64 % 0.0 in
07:19 12.8 °F 6.2 °F 1017.8 in WNW 7.4 mph 7.4 mph 64 % 0.0 in
07:44 12.8 °F 6.4 °F 1016.8 in WNW 11.1 mph 11.1 mph 65 % 0.0 in
07:49 12.9 °F 6.5 °F 1017.8 in SSE 9.3 mph 9.3 mph 65 % 0.0 in
07:54 12.9 °F 6.5 °F 1017.8 in NNE 7.4 mph 7.4 mph 65 % 0.0 in
07:59 12.9 °F 6.5 °F 1017.8 in NNW 11.1 mph 11.1 mph 65 % 0.0 in
08:09 12.8 °F 6.4 °F 1017.8 in NNW 13.0 mph 13.0 mph 65 % 0.0 in
08:14 12.8 °F 6.4 °F 1017.8 in West 11.1 mph 11.1 mph 65 % 0.0 in
08:19 12.9 °F 6.5 °F 1017.8 in WNW 5.6 mph 5.6 mph 65 % 0.0 in
08:24 12.9 °F 6.5 °F 1017.8 in South 3.7 mph 3.7 mph 65 % 0.0 in
08:34 13.0 °F 6.6 °F 1018.8 in ENE 7.4 mph 7.4 mph 65 % 0.0 in
08:39 13.0 °F 6.6 °F 1018.8 in NE 4.2 mph 4.2 mph 65 % 0.0 in
08:49 12.3 °F 5.7 °F 1018.8 in NNE 5.6 mph 5.6 mph 64 % 0.0 in
08:54 12.2 °F 5.8 °F 1018.8 in ENE 3.7 mph 3.7 mph 65 % 0.0 in
08:59 12.3 °F 5.9 °F 1018.8 in North 5.6 mph 5.6 mph 65 % 0.0 in
09:04 12.5 °F 6.1 °F 1018.8 in SSE 5.6 mph 5.6 mph 65 % 0.0 in
09:09 12.7 °F 6.3 °F 1018.8 in West 3.7 mph 3.9 mph 65 % 0.0 in
09:19 12.9 °F 6.7 °F 1018.8 in West 6.1 mph 6.1 mph 66 % 0.0 in
09:29 13.0 °F 6.8 °F 1018.8 in WNW 5.6 mph 5.6 mph 66 % 0.0 in
09:34 13.0 °F 6.8 °F 1019.9 in WSW 7.6 mph 7.6 mph 66 % 0.0 in
09:39 12.8 °F 6.4 °F 1019.9 in ENE 3.7 mph 3.7 mph 65 % 0.0 in
09:44 12.2 °F 5.8 °F 1019.9 in WNW 3.7 mph 3.7 mph 65 % 0.0 in
09:49 12.1 °F 5.7 °F 1019.9 in WNW 2.3 mph 2.3 mph 65 % 0.0 in
09:54 12.1 °F 5.9 °F 1019.9 in ENE 1.9 mph 2.3 mph 66 % 0.0 in
09:59 12.3 °F 6.1 °F 1019.9 in NW 5.6 mph 5.6 mph 66 % 0.0 in
10:04 12.5 °F 6.3 °F 1018.8 in ENE 5.6 mph 5.6 mph 66 % 0.0 in
10:09 12.6 °F 6.4 °F 1018.8 in West 7.4 mph 7.4 mph 66 % 0.0 in
10:14 12.8 °F 6.6 °F 1018.8 in NW 7.4 mph 7.4 mph 66 % 0.0 in
10:19 12.9 °F 6.7 °F 1019.9 in SW 5.6 mph 5.6 mph 66 % 0.0 in
10:24 13.0 °F 7.0 °F 1019.9 in NNE 3.7 mph 3.7 mph 67 % 0.0 in
10:29 13.1 °F 7.1 °F 1019.9 in WNW 6.9 mph 6.9 mph 67 % 0.0 in
10:34 13.2 °F 7.2 °F 1019.9 in ENE 4.2 mph 4.2 mph 67 % 0.0 in
10:39 12.6 °F 6.4 °F 1019.9 in NNE 11.1 mph 11.1 mph 66 % 0.0 in
10:44 12.1 °F 5.9 °F 1019.9 in NE 5.6 mph 5.6 mph 66 % 0.0 in
10:49 12.0 °F 5.8 °F 1019.9 in NNE 7.4 mph 7.4 mph 66 % 0.0 in
10:54 11.9 °F 5.7 °F 1019.9 in North 3.9 mph 3.9 mph 66 % 0.0 in
10:59 12.0 °F 5.8 °F 1019.9 in NNW 3.7 mph 3.7 mph 66 % 0.0 in
11:04 12.0 °F 5.8 °F 1019.9 in ENE 3.7 mph 3.7 mph 66 % 0.0 in
11:09 12.0 °F 5.8 °F 1019.9 in South 3.7 mph 3.7 mph 66 % 0.0 in
11:14 12.0 °F 5.8 °F 1019.9 in NE 7.4 mph 7.4 mph 66 % 0.0 in
11:19 12.0 °F 5.8 °F 1020.9 in NW 5.6 mph 5.6 mph 66 % 0.0 in
11:24 12.0 °F 6.1 °F 1020.9 in ENE 5.6 mph 5.6 mph 67 % 0.0 in
11:29 12.1 °F 6.2 °F 1020.9 in NE 3.7 mph 3.7 mph 67 % 0.0 in
11:34 12.1 °F 6.2 °F 1020.9 in ENE 3.7 mph 3.7 mph 67 % 0.0 in
11:39 12.2 °F 6.2 °F 1020.9 in NW 3.7 mph 3.7 mph 67 % 0.0 in
11:44 12.3 °F 6.3 °F 1020.9 in NNE 3.7 mph 3.7 mph 67 % 0.0 in
11:49 12.5 °F 6.6 °F 1020.9 in WSW 9.3 mph 9.3 mph 67 % 0.0 in
11:54 13.0 °F 7.0 °F 1020.9 in WSW 5.6 mph 5.6 mph 67 % 0.0 in
11:59 13.3 °F 7.3 °F 1020.9 in WSW 9.3 mph 9.3 mph 67 % 0.0 in
12:04 13.6 °F 7.6 °F 1019.9 in WSW 3.9 mph 3.9 mph 67 % 0.0 in
12:09 13.7 °F 7.7 °F 1019.9 in WSW 9.3 mph 9.3 mph 67 % 0.0 in
12:14 13.9 °F 7.9 °F 1019.9 in SW 11.1 mph 11.1 mph 67 % 0.0 in
12:19 14.0 °F 7.7 °F 1020.9 in ENE 3.9 mph 3.9 mph 66 % 0.0 in
12:24 13.6 °F 7.2 °F 1020.9 in ENE 5.6 mph 5.6 mph 65 % 0.0 in
12:29 13.4 °F 7.2 °F 1020.9 in ENE 4.2 mph 4.2 mph 66 % 0.0 in
12:34 13.3 °F 7.1 °F 1021.9 in NNE 7.4 mph 7.4 mph 66 % 0.0 in
12:39 13.3 °F 7.1 °F 1021.9 in ENE 4.2 mph 4.2 mph 66 % 0.0 in
12:44 13.4 °F 7.2 °F 1021.9 in East 4.2 mph 4.2 mph 66 % 0.0 in
12:49 13.5 °F 7.3 °F 1020.9 in ENE 3.7 mph 3.7 mph 66 % 0.0 in
12:54 13.6 °F 7.4 °F 1020.9 in NNE 4.7 mph 4.7 mph 66 % 0.0 in
12:59 13.7 °F 7.2 °F 1020.9 in ENE 3.9 mph 3.9 mph 65 % 0.0 in
13:04 13.8 °F 7.3 °F 1021.9 in ENE 5.6 mph 5.6 mph 65 % 0.0 in
13:09 14.0 °F 7.5 °F 1021.9 in NE 3.9 mph 3.9 mph 65 % 0.0 in
13:14 14.1 °F 7.6 °F 1021.9 in ENE 4.2 mph 4.2 mph 65 % 0.0 in
13:19 14.3 °F 7.8 °F 1020.9 in NNE 5.6 mph 5.6 mph 65 % 0.0 in
13:24 14.4 °F 7.9 °F 1020.9 in NNE 7.4 mph 7.4 mph 65 % 0.0 in
13:29 14.3 °F 7.6 °F 1020.9 in NE 9.3 mph 9.3 mph 64 % 0.0 in
13:34 14.4 °F 7.7 °F 1021.9 in ENE 7.4 mph 7.4 mph 64 % 0.0 in
13:39 14.7 °F 7.9 °F 1021.9 in NNE 5.6 mph 5.6 mph 64 % 0.0 in
13:44 14.9 °F 8.2 °F 1021.9 in NNE 4.2 mph 4.2 mph 64 % 0.0 in
13:49 15.1 °F 8.3 °F 1021.9 in NE 7.4 mph 7.4 mph 64 % 0.0 in
13:54 15.4 °F 8.6 °F 1021.9 in NNE 3.7 mph 3.7 mph 64 % 0.0 in
13:59 15.7 °F 8.7 °F 1021.9 in NNE 5.6 mph 5.6 mph 63 % 0.0 in
14:04 15.7 °F 8.7 °F 1021.9 in WNW 4.2 mph 4.2 mph 63 % 0.0 in
14:09 15.9 °F 8.8 °F 1021.9 in WNW 5.6 mph 5.6 mph 63 % 0.0 in
14:14 16.1 °F 8.8 °F 1021.9 in NE 7.4 mph 7.4 mph 62 % 0.0 in
14:19 16.2 °F 8.9 °F 1021.9 in West 7.4 mph 7.4 mph 62 % 0.0 in
14:24 16.3 °F 8.8 °F 1021.9 in NNE 4.7 mph 4.7 mph 61 % 0.0 in
14:29 16.3 °F 8.8 °F 1021.9 in NE 5.6 mph 5.6 mph 61 % 0.0 in
14:34 16.5 °F 9.2 °F 1021.9 in Calm     62 % 0.0 in
14:39 16.6 °F 9.1 °F 1021.9 in NW 1.9 mph 1.9 mph 61 % 0.0 in
14:44 16.7 °F 9.1 °F 1021.9 in NNE 2.3 mph   61 % 0.0 in
14:49 16.7 °F 9.1 °F 1021.9 in NNE 4.2 mph 4.2 mph 61 % 0.0 in
14:54 16.7 °F 9.1 °F 1021.9 in NW 3.7 mph 3.7 mph 61 % 0.0 in
14:59 16.8 °F 9.2 °F 1021.9 in NNW 1.9 mph 1.9 mph 61 % 0.0 in
15:04 17.0 °F 9.2 °F 1020.9 in NW 5.6 mph 5.6 mph 60 % 0.0 in
15:09 17.1 °F 9.0 °F 1020.9 in NW 3.7 mph 3.7 mph 59 % 0.0 in
15:14 17.1 °F 9.0 °F 1020.9 in NE 3.9 mph   59 % 0.0 in
15:19 17.1 °F 9.0 °F 1020.9 in NE 3.9 mph 3.9 mph 59 % 0.0 in
15:24 17.1 °F 9.0 °F 1020.9 in NNE 2.3 mph 2.3 mph 59 % 0.0 in
15:29 17.2 °F 9.1 °F 1020.9 in ENE 5.6 mph 5.6 mph 59 % 0.0 in
15:34 17.3 °F 9.2 °F 1020.9 in NNW 3.7 mph 3.7 mph 59 % 0.0 in
15:39 17.5 °F 9.4 °F 1020.9 in North 2.3 mph   59 % 0.0 in
15:44 17.5 °F 9.4 °F 1020.9 in NW 2.6 mph 2.6 mph 59 % 0.0 in
15:49 17.6 °F 9.5 °F 1020.9 in Calm     59 % 0.0 in
15:54 18.0 °F 9.9 °F 1020.9 in Calm     59 % 0.0 in
15:59 18.1 °F 9.9 °F 1020.9 in North 3.7 mph 3.7 mph 59 % 0.0 in
16:04 18.4 °F 10.2 °F 1020.9 in NNW 7.4 mph 7.4 mph 59 % 0.0 in
16:09 18.7 °F 10.5 °F 1020.9 in SW 5.6 mph 5.6 mph 59 % 0.0 in
16:14 19.8 °F 11.1 °F 1020.9 in WNW 11.1 mph 11.1 mph 57 % 0.0 in
16:19 20.0 °F 10.7 °F 1021.9 in WNW 7.4 mph 7.4 mph 55 % 0.0 in
16:21 20.0 °F 10.7 °F 1021.9 in West 7.4 mph 7.4 mph 55 % 0.0 in
16:26 20.2 °F 10.6 °F 1021.9 in SSW 5.6 mph 5.6 mph 54 % 0.0 in
16:31 20.4 °F 10.8 °F 1021.9 in WSW 9.3 mph 9.3 mph 54 % 0.0 in
16:36 20.7 °F 10.8 °F 1020.9 in South 3.7 mph 3.7 mph 53 % 0.0 in
16:41 20.8 °F 10.9 °F 1020.9 in SW 3.7 mph 3.7 mph 53 % 0.0 in
16:46 20.9 °F 10.9 °F 1020.9 in SSW 6.1 mph 6.1 mph 53 % 0.0 in
16:51 20.9 °F 10.9 °F 1020.9 in West 7.4 mph 7.4 mph 53 % 0.0 in
16:56 20.8 °F 10.6 °F 1020.9 in West 9.3 mph 9.3 mph 52 % 0.0 in
17:01 20.7 °F 10.5 °F 1020.9 in NW 5.6 mph 5.6 mph 52 % 0.0 in
17:06 20.6 °F 10.4 °F 1021.9 in NW 5.6 mph 5.6 mph 52 % 0.0 in
17:11 20.5 °F 10.3 °F 1021.9 in SW 9.3 mph 9.3 mph 52 % 0.0 in
17:16 20.4 °F 9.9 °F 1021.9 in West 9.3 mph 9.3 mph 51 % 0.0 in
17:21 20.2 °F 9.7 °F 1021.9 in WSW 3.9 mph 3.9 mph 51 % 0.0 in
17:26 20.1 °F 9.7 °F 1021.9 in West 13.0 mph 13.0 mph 51 % 0.0 in
17:31 19.9 °F 9.4 °F 1021.9 in WNW 5.6 mph 5.6 mph 51 % 0.0 in
17:36 19.7 °F 9.3 °F 1020.9 in West 11.1 mph 11.1 mph 51 % 0.0 in
17:41 19.4 °F 9.0 °F 1020.9 in WSW 9.3 mph 9.3 mph 51 % 0.0 in
17:46 19.3 °F 8.6 °F 1020.9 in WNW 9.3 mph 9.3 mph 50 % 0.0 in
17:51 19.2 °F 8.5 °F 1021.9 in West 9.3 mph 9.3 mph 50 % 0.0 in
17:56 19.0 °F 8.3 °F 1021.9 in West 3.7 mph 3.7 mph 50 % 0.0 in
18:01 18.7 °F 8.3 °F 1021.9 in SW 3.7 mph 3.7 mph 51 % 0.0 in
18:06 18.6 °F 8.3 °F 1020.9 in West 7.4 mph 7.4 mph 51 % 0.0 in
18:11 18.5 °F 8.2 °F 1020.9 in WSW 9.3 mph 9.3 mph 51 % 0.0 in
18:16 18.3 °F 8.0 °F 1020.9 in WSW 5.8 mph 5.8 mph 51 % 0.0 in
18:21 18.2 °F 8.2 °F 1021.9 in West 9.3 mph 9.3 mph 52 % 0.0 in
18:26 18.0 °F 8.0 °F 1021.9 in WSW 5.6 mph 5.6 mph 52 % 0.0 in
18:31 17.9 °F 7.9 °F 1021.9 in WNW 9.3 mph 9.3 mph 52 % 0.0 in
18:36 17.8 °F 7.8 °F 1021.9 in SW 5.6 mph 5.6 mph 52 % 0.0 in
18:41 17.8 °F 7.8 °F 1021.9 in West 11.1 mph 11.1 mph 52 % 0.0 in
18:46 17.7 °F 7.7 °F 1021.9 in WSW 5.6 mph 5.6 mph 52 % 0.0 in
18:51 17.5 °F 7.6 °F 1020.9 in SSW 7.4 mph 7.4 mph 52 % 0.0 in
18:56 17.2 °F 7.3 °F 1020.9 in SSW 7.4 mph 7.4 mph 52 % 0.0 in
19:01 17.1 °F 7.4 °F 1020.9 in South 11.1 mph 11.1 mph 53 % 0.0 in
19:06 17.1 °F 7.4 °F 1021.9 in WSW 3.9 mph 3.9 mph 53 % 0.0 in
19:11 16.9 °F 7.5 °F 1021.9 in WNW 7.9 mph 7.9 mph 54 % 0.0 in
19:16 16.9 °F 7.5 °F 1021.9 in West 5.6 mph 5.6 mph 54 % 0.0 in
19:21 16.7 °F 7.3 °F 1021.9 in WNW 7.4 mph 7.4 mph 54 % 0.0 in
19:26 16.6 °F 7.2 °F 1021.9 in SW 5.6 mph 5.6 mph 54 % 0.0 in
19:31 16.5 °F 7.4 °F 1021.9 in SW 11.1 mph 11.1 mph 55 % 0.0 in
19:36 16.4 °F 7.3 °F 1022.9 in WSW 9.3 mph 9.3 mph 55 % 0.0 in
19:41 16.5 °F 7.4 °F 1022.9 in WSW 7.4 mph 7.4 mph 55 % 0.0 in
19:46 16.3 °F 7.2 °F 1022.9 in WSW 9.3 mph 9.3 mph 55 % 0.0 in
19:51 16.3 °F 7.2 °F 1021.9 in West 5.6 mph 5.6 mph 55 % 0.0 in
19:56 16.2 °F 7.2 °F 1021.9 in WSW 13.0 mph 13.0 mph 55 % 0.0 in
20:01 16.2 °F 7.2 °F 1021.9 in WSW 7.4 mph 7.4 mph 55 % 0.0 in
20:06 16.1 °F 7.3 °F 1022.9 in WSW 6.1 mph 6.1 mph 56 % 0.0 in
20:11 16.0 °F 7.2 °F 1022.9 in WSW 9.3 mph 9.3 mph 56 % 0.0 in
20:16 15.7 °F 6.9 °F 1022.9 in WSW 7.4 mph 7.4 mph 56 % 0.0 in
20:21 15.6 °F 6.8 °F 1022.9 in WSW 7.4 mph 7.4 mph 56 % 0.0 in
20:26 15.5 °F 6.8 °F 1022.9 in West 7.4 mph 7.4 mph 56 % 0.0 in
20:31 15.4 °F 6.9 °F 1022.9 in West 7.4 mph 7.4 mph 57 % 0.0 in
20:36 15.4 °F 6.9 °F 1022.9 in WNW 7.4 mph 7.4 mph 57 % 0.0 in
20:41 15.4 °F 6.9 °F 1022.9 in West 5.6 mph 5.6 mph 57 % 0.0 in
20:46 15.4 °F 6.9 °F 1022.9 in West 7.4 mph 7.4 mph 57 % 0.0 in
20:51 15.3 °F 6.8 °F 1022.9 in WNW 5.6 mph 5.6 mph 57 % 0.0 in
20:56 15.2 °F 6.7 °F 1022.9 in WSW 5.6 mph 5.6 mph 57 % 0.0 in
21:01 15.2 °F 7.0 °F 1022.9 in West 10.3 mph 10.3 mph 58 % 0.0 in
21:06 15.2 °F 7.0 °F 1021.9 in West 9.7 mph 9.7 mph 58 % 0.0 in
21:11 15.2 °F 7.0 °F 1021.9 in SW 13.0 mph 13.0 mph 58 % 0.0 in
21:16 15.2 °F 7.0 °F 1021.9 in West 13.0 mph 13.0 mph 58 % 0.0 in
21:21 15.3 °F 7.1 °F 1021.9 in West 16.7 mph 16.7 mph 58 % 0.0 in
21:26 15.2 °F 7.0 °F 1021.9 in WSW 14.8 mph 14.8 mph 58 % 0.0 in
21:31 15.2 °F 7.0 °F 1021.9 in West 13.0 mph 13.0 mph 58 % 0.0 in
21:36 15.1 °F 6.6 °F 1021.9 in West 11.1 mph 11.1 mph 57 % 0.0 in
21:41 15.1 °F 6.6 °F 1021.9 in West 13.0 mph 13.0 mph 57 % 0.0 in
21:46 15.1 °F 6.6 °F 1021.9 in West 14.0 mph 14.0 mph 57 % 0.0 in
21:51 15.1 °F 6.6 °F 1022.9 in West 16.7 mph 16.7 mph 57 % 0.0 in
21:56 15.0 °F 6.6 °F 1022.9 in West 16.7 mph 16.7 mph 57 % 0.0 in
22:01 14.9 °F 6.4 °F 1021.9 in West 14.0 mph 14.0 mph 57 % 0.0 in
22:26 14.5 °F 6.3 °F 1022.9 in WSW 9.3 mph 9.3 mph 58 % 0.0 in
22:31 14.4 °F 6.2 °F 1021.9 in West 13.0 mph 13.0 mph 58 % 0.0 in
22:36 14.4 °F 6.2 °F 1021.9 in West 16.7 mph 16.7 mph 58 % 0.0 in
22:41 14.3 °F 6.4 °F 1021.9 in West 13.0 mph 13.0 mph 59 % 0.0 in
22:46 14.2 °F 6.3 °F 1022.9 in West 11.1 mph 11.1 mph 59 % 0.0 in
22:51 14.1 °F 6.2 °F 1022.9 in West 5.6 mph 5.6 mph 59 % 0.0 in
22:56 14.0 °F 6.1 °F 1022.9 in West 5.3 mph 6.4 mph 59 % 0.0 in
23:01 14.0 °F 6.1 °F 1022.9 in WSW 5.6 mph 5.6 mph 59 % 0.0 in
23:07 13.8 °F 5.9 °F 1022.9 in WSW 5.6 mph 5.6 mph 59 % 0.0 in
23:12 13.7 °F 5.8 °F 1022.9 in West 3.7 mph 3.9 mph 59 % 0.0 in
23:17 13.7 °F 5.8 °F 1022.9 in West 5.6 mph 5.6 mph 59 % 0.0 in
23:22 13.7 °F 5.8 °F 1022.9 in WSW 7.4 mph 7.4 mph 59 % 0.0 in
23:27 13.7 °F 6.1 °F 1022.9 in West 7.6 mph 7.6 mph 60 % 0.0 in
23:32 13.7 °F 6.1 °F 1022.9 in WSW 11.1 mph 11.1 mph 60 % 0.0 in
23:37 13.7 °F 6.1 °F 1022.9 in WSW 7.4 mph 7.4 mph 60 % 0.0 in
23:38 13.7 °F 6.1 °F 1022.9 in WSW 10.3 mph 10.3 mph 60 % 0.0 in
23:43 13.7 °F 6.1 °F 1022.9 in West 13.0 mph 13.0 mph 60 % 0.0 in
23:48 13.7 °F 6.1 °F 1022.9 in West 7.6 mph 7.6 mph 60 % 0.0 in
23:58 13.6 °F 6.0 °F 1022.9 in West 7.4 mph 7.4 mph 60 % 0.0 in
Meteo Sesrovires
Elogis d' Weather Underground - 4 mb

Guio original per  Jim McMurry - jmcmurry@mwt.net Adaptat per a la plantilla per  Wim van der Kuil - Leuven-Template.eu

Trobareu la nostra informacio del temps tambe a:

Weather Underground

AWEKAS